sensor_id;sensor_type;location;lat;lon;timestamp;temperature;humidity
23499;DHT22;11926;48.120;11.562;2023-03-14T00:02:01;11.70;86.30
23499;DHT22;11926;48.120;11.562;2023-03-14T00:04:49;11.60;86.30
23499;DHT22;11926;48.120;11.562;2023-03-14T00:07:38;11.60;86.50
23499;DHT22;11926;48.120;11.562;2023-03-14T00:10:27;11.50;86.60
23499;DHT22;11926;48.120;11.562;2023-03-14T00:13:15;11.50;86.80
23499;DHT22;11926;48.120;11.562;2023-03-14T00:16:04;11.40;86.90
23499;DHT22;11926;48.120;11.562;2023-03-14T00:18:52;11.50;87.10
23499;DHT22;11926;48.120;11.562;2023-03-14T00:21:40;11.40;87.10
23499;DHT22;11926;48.120;11.562;2023-03-14T00:24:27;11.40;87.30
23499;DHT22;11926;48.120;11.562;2023-03-14T00:27:16;11.40;87.50
23499;DHT22;11926;48.120;11.562;2023-03-14T00:30:04;11.40;87.70
23499;DHT22;11926;48.120;11.562;2023-03-14T00:32:54;11.50;87.70
23499;DHT22;11926;48.120;11.562;2023-03-14T00:35:42;11.50;87.70
23499;DHT22;11926;48.120;11.562;2023-03-14T00:38:30;11.50;87.90
23499;DHT22;11926;48.120;11.562;2023-03-14T00:41:19;11.50;88.00
23499;DHT22;11926;48.120;11.562;2023-03-14T00:49:45;11.50;87.50
23499;DHT22;11926;48.120;11.562;2023-03-14T00:52:32;11.60;88.80
23499;DHT22;11926;48.120;11.562;2023-03-14T00:55:20;11.60;88.80
23499;DHT22;11926;48.120;11.562;2023-03-14T00:58:08;11.60;88.80
23499;DHT22;11926;48.120;11.562;2023-03-14T01:00:57;11.70;89.00
23499;DHT22;11926;48.120;11.562;2023-03-14T01:03:45;11.70;89.10
23499;DHT22;11926;48.120;11.562;2023-03-14T01:06:34;11.70;89.20
23499;DHT22;11926;48.120;11.562;2023-03-14T01:09:22;11.70;89.60
23499;DHT22;11926;48.120;11.562;2023-03-14T01:12:09;11.70;89.90
23499;DHT22;11926;48.120;11.562;2023-03-14T01:15:01;11.70;90.00
23499;DHT22;11926;48.120;11.562;2023-03-14T01:17:50;11.70;90.20
23499;DHT22;11926;48.120;11.562;2023-03-14T01:20:37;11.70;90.40
23499;DHT22;11926;48.120;11.562;2023-03-14T01:23:25;11.70;90.50
23499;DHT22;11926;48.120;11.562;2023-03-14T01:26:16;11.70;90.70
23499;DHT22;11926;48.120;11.562;2023-03-14T01:29:05;11.70;91.00
23499;DHT22;11926;48.120;11.562;2023-03-14T01:31:57;11.60;91.20
23499;DHT22;11926;48.120;11.562;2023-03-14T01:34:46;11.60;91.30
23499;DHT22;11926;48.120;11.562;2023-03-14T01:37:34;11.60;91.50
23499;DHT22;11926;48.120;11.562;2023-03-14T01:40:27;11.60;91.60
23499;DHT22;11926;48.120;11.562;2023-03-14T01:43:16;11.60;91.80
23499;DHT22;11926;48.120;11.562;2023-03-14T01:46:21;11.60;92.00
23499;DHT22;11926;48.120;11.562;2023-03-14T01:49:16;11.60;92.10
23499;DHT22;11926;48.120;11.562;2023-03-14T01:52:18;11.60;92.30
23499;DHT22;11926;48.120;11.562;2023-03-14T01:55:09;11.60;92.40
23499;DHT22;11926;48.120;11.562;2023-03-14T01:58:02;11.50;92.50
23499;DHT22;11926;48.120;11.562;2023-03-14T02:00:51;11.50;92.70
23499;DHT22;11926;48.120;11.562;2023-03-14T02:03:46;11.50;92.90
23499;DHT22;11926;48.120;11.562;2023-03-14T02:06:42;11.40;92.90
23499;DHT22;11926;48.120;11.562;2023-03-14T02:09:37;11.30;93.00
23499;DHT22;11926;48.120;11.562;2023-03-14T02:12:29;11.20;93.10
23499;DHT22;11926;48.120;11.562;2023-03-14T02:15:37;11.20;93.30
23499;DHT22;11926;48.120;11.562;2023-03-14T02:18:34;11.10;93.30
23499;DHT22;11926;48.120;11.562;2023-03-14T02:21:47;11.00;93.90
23499;DHT22;11926;48.120;11.562;2023-03-14T02:24:43;10.90;93.70
23499;DHT22;11926;48.120;11.562;2023-03-14T02:27:34;10.80;93.80
23499;DHT22;11926;48.120;11.562;2023-03-14T02:30:24;10.70;93.80
23499;DHT22;11926;48.120;11.562;2023-03-14T02:33:16;10.60;94.00
23499;DHT22;11926;48.120;11.562;2023-03-14T02:36:09;10.60;94.20
23499;DHT22;11926;48.120;11.562;2023-03-14T02:39:07;10.50;94.30
23499;DHT22;11926;48.120;11.562;2023-03-14T02:42:01;10.50;94.40
23499;DHT22;11926;48.120;11.562;2023-03-14T02:44:53;10.50;94.50
23499;DHT22;11926;48.120;11.562;2023-03-14T02:47:45;10.50;94.50
23499;DHT22;11926;48.120;11.562;2023-03-14T02:50:36;10.50;94.50
23499;DHT22;11926;48.120;11.562;2023-03-14T02:53:26;10.50;94.60
23499;DHT22;11926;48.120;11.562;2023-03-14T02:56:19;10.40;94.60
23499;DHT22;11926;48.120;11.562;2023-03-14T02:59:08;10.40;94.60
23499;DHT22;11926;48.120;11.562;2023-03-14T03:02:05;10.30;94.60
23499;DHT22;11926;48.120;11.562;2023-03-14T03:04:53;10.30;94.60
23499;DHT22;11926;48.120;11.562;2023-03-14T03:07:41;10.30;94.70
23499;DHT22;11926;48.120;11.562;2023-03-14T03:10:30;10.30;94.70
23499;DHT22;11926;48.120;11.562;2023-03-14T03:13:19;10.30;94.70
23499;DHT22;11926;48.120;11.562;2023-03-14T03:16:11;10.20;94.60
23499;DHT22;11926;48.120;11.562;2023-03-14T03:19:03;10.10;94.50
23499;DHT22;11926;48.120;11.562;2023-03-14T03:21:50;10.10;94.70
23499;DHT22;11926;48.120;11.562;2023-03-14T03:24:39;10.10;94.70
23499;DHT22;11926;48.120;11.562;2023-03-14T03:27:29;10.10;94.70
23499;DHT22;11926;48.120;11.562;2023-03-14T03:30:17;10.10;94.70
23499;DHT22;11926;48.120;11.562;2023-03-14T03:33:06;10.10;94.70
23499;DHT22;11926;48.120;11.562;2023-03-14T03:35:57;10.10;94.70
23499;DHT22;11926;48.120;11.562;2023-03-14T03:38:49;10.00;94.70
23499;DHT22;11926;48.120;11.562;2023-03-14T03:41:37;10.00;94.70
23499;DHT22;11926;48.120;11.562;2023-03-14T03:44:26;10.00;94.70
23499;DHT22;11926;48.120;11.562;2023-03-14T03:47:14;10.00;94.70
23499;DHT22;11926;48.120;11.562;2023-03-14T03:50:02;9.90;94.70
23499;DHT22;11926;48.120;11.562;2023-03-14T03:52:52;9.90;94.60
23499;DHT22;11926;48.120;11.562;2023-03-14T03:55:41;9.80;94.60
23499;DHT22;11926;48.120;11.562;2023-03-14T03:58:30;9.80;94.60
23499;DHT22;11926;48.120;11.562;2023-03-14T04:01:18;9.80;94.90
23499;DHT22;11926;48.120;11.562;2023-03-14T04:04:09;9.80;94.50
23499;DHT22;11926;48.120;11.562;2023-03-14T04:06:57;9.70;94.50
23499;DHT22;11926;48.120;11.562;2023-03-14T04:09:47;9.70;94.50
23499;DHT22;11926;48.120;11.562;2023-03-14T04:12:42;9.80;94.40
23499;DHT22;11926;48.120;11.562;2023-03-14T04:15:36;9.70;94.30
23499;DHT22;11926;48.120;11.562;2023-03-14T04:18:34;9.60;94.20
23499;DHT22;11926;48.120;11.562;2023-03-14T04:21:22;9.60;94.20
23499;DHT22;11926;48.120;11.562;2023-03-14T04:24:14;9.60;94.20
23499;DHT22;11926;48.120;11.562;2023-03-14T04:27:08;9.60;94.20
23499;DHT22;11926;48.120;11.562;2023-03-14T04:29:56;9.60;94.20
23499;DHT22;11926;48.120;11.562;2023-03-14T04:33:03;9.60;94.20
23499;DHT22;11926;48.120;11.562;2023-03-14T04:35:54;9.60;94.20
23499;DHT22;11926;48.120;11.562;2023-03-14T04:38:44;9.50;94.20
23499;DHT22;11926;48.120;11.562;2023-03-14T04:41:36;9.50;94.10
23499;DHT22;11926;48.120;11.562;2023-03-14T04:44:26;9.50;94.00
23499;DHT22;11926;48.120;11.562;2023-03-14T04:47:14;9.50;94.10
23499;DHT22;11926;48.120;11.562;2023-03-14T04:50:04;9.50;94.00
23499;DHT22;11926;48.120;11.562;2023-03-14T04:52:52;9.50;94.00
23499;DHT22;11926;48.120;11.562;2023-03-14T04:55:41;9.50;93.90
23499;DHT22;11926;48.120;11.562;2023-03-14T04:58:29;9.40;93.90
23499;DHT22;11926;48.120;11.562;2023-03-14T05:01:20;9.40;93.90
23499;DHT22;11926;48.120;11.562;2023-03-14T05:04:28;9.40;94.00
23499;DHT22;11926;48.120;11.562;2023-03-14T05:07:22;9.40;93.90
23499;DHT22;11926;48.120;11.562;2023-03-14T05:10:13;9.30;93.80
23499;DHT22;11926;48.120;11.562;2023-03-14T05:13:20;9.30;93.90
23499;DHT22;11926;48.120;11.562;2023-03-14T05:16:10;9.40;93.90
23499;DHT22;11926;48.120;11.562;2023-03-14T05:19:06;9.40;93.90
23499;DHT22;11926;48.120;11.562;2023-03-14T05:21:54;9.30;93.90
23499;DHT22;11926;48.120;11.562;2023-03-14T05:25:02;9.30;93.90
23499;DHT22;11926;48.120;11.562;2023-03-14T05:28:05;9.30;93.90
23499;DHT22;11926;48.120;11.562;2023-03-14T05:30:57;9.30;93.90
23499;DHT22;11926;48.120;11.562;2023-03-14T05:34:00;9.30;93.90
23499;DHT22;11926;48.120;11.562;2023-03-14T05:37:00;9.30;94.00
23499;DHT22;11926;48.120;11.562;2023-03-14T05:40:08;9.30;94.00
23499;DHT22;11926;48.120;11.562;2023-03-14T05:42:56;9.30;94.00
23499;DHT22;11926;48.120;11.562;2023-03-14T05:46:00;9.30;94.00
23499;DHT22;11926;48.120;11.562;2023-03-14T05:49:00;9.20;93.90
23499;DHT22;11926;48.120;11.562;2023-03-14T05:52:10;9.20;93.90
23499;DHT22;11926;48.120;11.562;2023-03-14T05:55:18;9.30;94.00
23499;DHT22;11926;48.120;11.562;2023-03-14T05:58:18;9.20;93.90
23499;DHT22;11926;48.120;11.562;2023-03-14T06:01:15;9.20;93.90
23499;DHT22;11926;48.120;11.562;2023-03-14T06:04:03;9.20;93.90
23499;DHT22;11926;48.120;11.562;2023-03-14T06:06:53;9.20;93.90
23499;DHT22;11926;48.120;11.562;2023-03-14T06:09:42;9.30;93.90
23499;DHT22;11926;48.120;11.562;2023-03-14T06:12:34;9.30;93.90
23499;DHT22;11926;48.120;11.562;2023-03-14T06:15:22;9.30;93.90
23499;DHT22;11926;48.120;11.562;2023-03-14T06:18:13;9.30;93.80
23499;DHT22;11926;48.120;11.562;2023-03-14T06:21:02;9.30;94.30
23499;DHT22;11926;48.120;11.562;2023-03-14T06:23:50;9.30;93.80
23499;DHT22;11926;48.120;11.562;2023-03-14T06:26:41;9.40;93.80
23499;DHT22;11926;48.120;11.562;2023-03-14T06:29:32;9.40;93.70
23499;DHT22;11926;48.120;11.562;2023-03-14T06:32:21;9.40;93.70
23499;DHT22;11926;48.120;11.562;2023-03-14T06:35:12;9.50;93.60
23499;DHT22;11926;48.120;11.562;2023-03-14T06:38:02;9.50;93.50
23499;DHT22;11926;48.120;11.562;2023-03-14T06:40:51;9.50;93.40
23499;DHT22;11926;48.120;11.562;2023-03-14T06:43:51;9.60;93.40
23499;DHT22;11926;48.120;11.562;2023-03-14T06:46:42;9.60;93.40
23499;DHT22;11926;48.120;11.562;2023-03-14T06:49:30;9.70;93.40
23499;DHT22;11926;48.120;11.562;2023-03-14T06:52:20;9.80;93.30
23499;DHT22;11926;48.120;11.562;2023-03-14T06:55:08;9.80;93.20
23499;DHT22;11926;48.120;11.562;2023-03-14T06:57:58;9.90;93.00
23499;DHT22;11926;48.120;11.562;2023-03-14T07:00:48;9.90;93.00
23499;DHT22;11926;48.120;11.562;2023-03-14T07:03:42;9.90;93.00
23499;DHT22;11926;48.120;11.562;2023-03-14T07:06:30;9.90;92.90
23499;DHT22;11926;48.120;11.562;2023-03-14T07:09:18;9.90;92.90
23499;DHT22;11926;48.120;11.562;2023-03-14T07:12:16;9.90;92.90
23499;DHT22;11926;48.120;11.562;2023-03-14T07:15:05;10.00;92.80
23499;DHT22;11926;48.120;11.562;2023-03-14T07:18:13;10.00;92.80
23499;DHT22;11926;48.120;11.562;2023-03-14T07:21:01;10.00;92.60
23499;DHT22;11926;48.120;11.562;2023-03-14T07:23:49;10.00;92.60
23499;DHT22;11926;48.120;11.562;2023-03-14T07:26:41;10.10;92.50
23499;DHT22;11926;48.120;11.562;2023-03-14T07:29:29;10.10;92.90
23499;DHT22;11926;48.120;11.562;2023-03-14T07:32:21;10.10;92.40
23499;DHT22;11926;48.120;11.562;2023-03-14T07:35:10;10.10;92.40
23499;DHT22;11926;48.120;11.562;2023-03-14T07:38:00;10.10;92.20
23499;DHT22;11926;48.120;11.562;2023-03-14T07:40:59;10.20;92.20
23499;DHT22;11926;48.120;11.562;2023-03-14T07:43:50;10.20;92.10
23499;DHT22;11926;48.120;11.562;2023-03-14T07:46:40;10.30;92.00
23499;DHT22;11926;48.120;11.562;2023-03-14T07:49:28;10.30;91.90
23499;DHT22;11926;48.120;11.562;2023-03-14T07:52:17;10.40;91.80
23499;DHT22;11926;48.120;11.562;2023-03-14T07:55:06;10.40;91.70
23499;DHT22;11926;48.120;11.562;2023-03-14T07:57:54;10.50;91.80
23499;DHT22;11926;48.120;11.562;2023-03-14T08:00:41;10.60;91.60
23499;DHT22;11926;48.120;11.562;2023-03-14T08:03:30;10.60;91.40
23499;DHT22;11926;48.120;11.562;2023-03-14T08:06:17;10.70;91.40
23499;DHT22;11926;48.120;11.562;2023-03-14T08:09:06;10.80;91.10
23499;DHT22;11926;48.120;11.562;2023-03-14T08:11:54;10.90;90.90
23499;DHT22;11926;48.120;11.562;2023-03-14T08:14:43;10.90;91.00
23499;DHT22;11926;48.120;11.562;2023-03-14T08:17:30;11.00;91.20
23499;DHT22;11926;48.120;11.562;2023-03-14T08:20:18;11.10;90.70
23499;DHT22;11926;48.120;11.562;2023-03-14T08:23:05;11.10;90.50
23499;DHT22;11926;48.120;11.562;2023-03-14T08:25:54;11.20;90.30
23499;DHT22;11926;48.120;11.562;2023-03-14T08:28:42;11.30;90.00
23499;DHT22;11926;48.120;11.562;2023-03-14T08:31:29;11.20;90.00
23499;DHT22;11926;48.120;11.562;2023-03-14T08:34:17;11.30;89.60
23499;DHT22;11926;48.120;11.562;2023-03-14T08:37:05;11.30;89.30
23499;DHT22;11926;48.120;11.562;2023-03-14T08:40:09;11.30;89.00
23499;DHT22;11926;48.120;11.562;2023-03-14T08:42:59;11.40;88.80
23499;DHT22;11926;48.120;11.562;2023-03-14T08:45:46;11.40;88.40
23499;DHT22;11926;48.120;11.562;2023-03-14T08:48:35;11.40;88.40
23499;DHT22;11926;48.120;11.562;2023-03-14T08:51:23;11.40;88.00
23499;DHT22;11926;48.120;11.562;2023-03-14T08:54:11;11.40;87.90
23499;DHT22;11926;48.120;11.562;2023-03-14T08:56:58;11.40;88.30
23499;DHT22;11926;48.120;11.562;2023-03-14T08:59:47;11.40;87.70
23499;DHT22;11926;48.120;11.562;2023-03-14T09:02:35;11.50;87.20
23499;DHT22;11926;48.120;11.562;2023-03-14T09:05:22;11.50;87.20
23499;DHT22;11926;48.120;11.562;2023-03-14T09:08:10;11.50;87.00
23499;DHT22;11926;48.120;11.562;2023-03-14T09:10:58;11.60;86.70
23499;DHT22;11926;48.120;11.562;2023-03-14T09:13:45;11.60;86.30
23499;DHT22;11926;48.120;11.562;2023-03-14T09:16:35;11.70;86.10
23499;DHT22;11926;48.120;11.562;2023-03-14T09:19:23;11.80;85.40
23499;DHT22;11926;48.120;11.562;2023-03-14T09:22:11;11.80;85.00
23499;DHT22;11926;48.120;11.562;2023-03-14T09:24:58;11.80;84.80
23499;DHT22;11926;48.120;11.562;2023-03-14T09:27:45;11.80;84.20
23499;DHT22;11926;48.120;11.562;2023-03-14T09:30:33;11.90;84.10
23499;DHT22;11926;48.120;11.562;2023-03-14T09:33:22;11.90;84.10
23499;DHT22;11926;48.120;11.562;2023-03-14T09:36:09;11.90;83.50
23499;DHT22;11926;48.120;11.562;2023-03-14T09:38:57;11.80;83.30
23499;DHT22;11926;48.120;11.562;2023-03-14T09:41:46;11.80;83.30
23499;DHT22;11926;48.120;11.562;2023-03-14T09:44:37;11.80;83.20
23499;DHT22;11926;48.120;11.562;2023-03-14T09:47:26;11.80;83.40
23499;DHT22;11926;48.120;11.562;2023-03-14T09:50:16;11.90;83.30
23499;DHT22;11926;48.120;11.562;2023-03-14T09:53:06;12.00;83.40
23499;DHT22;11926;48.120;11.562;2023-03-14T09:55:54;12.00;83.10
23499;DHT22;11926;48.120;11.562;2023-03-14T09:58:45;12.10;83.00
23499;DHT22;11926;48.120;11.562;2023-03-14T10:01:35;12.10;83.60
23499;DHT22;11926;48.120;11.562;2023-03-14T10:04:23;12.20;83.20
23499;DHT22;11926;48.120;11.562;2023-03-14T10:07:14;12.20;83.10
23499;DHT22;11926;48.120;11.562;2023-03-14T10:10:10;12.30;83.10
23499;DHT22;11926;48.120;11.562;2023-03-14T10:12:59;12.40;83.40
23499;DHT22;11926;48.120;11.562;2023-03-14T10:15:52;12.50;83.10
23499;DHT22;11926;48.120;11.562;2023-03-14T10:18:44;12.60;82.80
23499;DHT22;11926;48.120;11.562;2023-03-14T10:21:37;12.70;82.20
23499;DHT22;11926;48.120;11.562;2023-03-14T10:24:30;12.90;81.30
23499;DHT22;11926;48.120;11.562;2023-03-14T10:27:20;13.60;81.20
23499;DHT22;11926;48.120;11.562;2023-03-14T10:30:30;15.50;80.40
23499;DHT22;11926;48.120;11.562;2023-03-14T10:33:21;17.80;73.80
23499;DHT22;11926;48.120;11.562;2023-03-14T10:36:19;18.10;68.20
23499;DHT22;11926;48.120;11.562;2023-03-14T10:39:26;17.70;66.20
23499;DHT22;11926;48.120;11.562;2023-03-14T10:42:19;17.30;66.80
23499;DHT22;11926;48.120;11.562;2023-03-14T10:45:21;17.70;66.40
23499;DHT22;11926;48.120;11.562;2023-03-14T10:48:20;18.40;68.00
23499;DHT22;11926;48.120;11.562;2023-03-14T10:51:11;18.70;62.50
23499;DHT22;11926;48.120;11.562;2023-03-14T10:54:02;18.30;65.60
23499;DHT22;11926;48.120;11.562;2023-03-14T10:56:57;17.60;60.20
23499;DHT22;11926;48.120;11.562;2023-03-14T10:59:48;17.00;61.40
23499;DHT22;11926;48.120;11.562;2023-03-14T11:02:49;16.40;62.30
23499;DHT22;11926;48.120;11.562;2023-03-14T11:05:42;16.10;62.60
23499;DHT22;11926;48.120;11.562;2023-03-14T11:08:37;15.80;63.20
23499;DHT22;11926;48.120;11.562;2023-03-14T11:11:29;15.60;63.30
23499;DHT22;11926;48.120;11.562;2023-03-14T11:14:25;15.50;63.80
23499;DHT22;11926;48.120;11.562;2023-03-14T11:17:23;15.30;64.40
23499;DHT22;11926;48.120;11.562;2023-03-14T11:20:23;15.30;64.00
23499;DHT22;11926;48.120;11.562;2023-03-14T11:23:16;15.20;65.00
23499;DHT22;11926;48.120;11.562;2023-03-14T11:26:17;15.20;64.60
23499;DHT22;11926;48.120;11.562;2023-03-14T11:29:16;15.30;63.80
23499;DHT22;11926;48.120;11.562;2023-03-14T11:32:13;15.50;62.60
23499;DHT22;11926;48.120;11.562;2023-03-14T11:35:13;15.70;62.00
23499;DHT22;11926;48.120;11.562;2023-03-14T11:38:12;15.80;62.10
23499;DHT22;11926;48.120;11.562;2023-03-14T11:41:02;15.90;61.70
23499;DHT22;11926;48.120;11.562;2023-03-14T11:43:57;15.90;61.80
23499;DHT22;11926;48.120;11.562;2023-03-14T11:46:51;16.00;61.30
23499;DHT22;11926;48.120;11.562;2023-03-14T11:49:45;15.90;60.90
23499;DHT22;11926;48.120;11.562;2023-03-14T11:52:41;15.80;61.10
23499;DHT22;11926;48.120;11.562;2023-03-14T11:55:30;15.60;60.60
23499;DHT22;11926;48.120;11.562;2023-03-14T11:58:23;15.20;61.30
23499;DHT22;11926;48.120;11.562;2023-03-14T12:01:14;15.00;62.00
23499;DHT22;11926;48.120;11.562;2023-03-14T12:04:10;14.90;62.70
23499;DHT22;11926;48.120;11.562;2023-03-14T12:07:04;14.80;63.20
23499;DHT22;11926;48.120;11.562;2023-03-14T12:09:56;14.80;63.40
23499;DHT22;11926;48.120;11.562;2023-03-14T12:12:45;14.80;63.80
23499;DHT22;11926;48.120;11.562;2023-03-14T12:15:38;15.00;63.70
23499;DHT22;11926;48.120;11.562;2023-03-14T12:18:32;15.10;63.70
23499;DHT22;11926;48.120;11.562;2023-03-14T12:21:21;15.10;63.60
23499;DHT22;11926;48.120;11.562;2023-03-14T12:24:18;15.10;63.10
23499;DHT22;11926;48.120;11.562;2023-03-14T12:27:13;15.00;63.20
23499;DHT22;11926;48.120;11.562;2023-03-14T12:30:27;15.00;62.70
23499;DHT22;11926;48.120;11.562;2023-03-14T12:33:28;14.90;62.80
23499;DHT22;11926;48.120;11.562;2023-03-14T12:39:44;15.00;62.50
23499;DHT22;11926;48.120;11.562;2023-03-14T12:42:42;15.00;62.40
23499;DHT22;11926;48.120;11.562;2023-03-14T12:45:32;14.90;62.70
23499;DHT22;11926;48.120;11.562;2023-03-14T12:48:22;15.00;62.70
23499;DHT22;11926;48.120;11.562;2023-03-14T12:51:13;15.10;62.80
23499;DHT22;11926;48.120;11.562;2023-03-14T12:54:17;15.20;62.70
23499;DHT22;11926;48.120;11.562;2023-03-14T12:57:20;15.20;62.60
23499;DHT22;11926;48.120;11.562;2023-03-14T13:00:20;15.10;62.70
23499;DHT22;11926;48.120;11.562;2023-03-14T13:03:18;15.10;63.60
23499;DHT22;11926;48.120;11.562;2023-03-14T13:06:09;14.90;62.90
23499;DHT22;11926;48.120;11.562;2023-03-14T13:12:27;14.70;63.80
23499;DHT22;11926;48.120;11.562;2023-03-14T13:15:24;14.60;64.30
23499;DHT22;11926;48.120;11.562;2023-03-14T13:18:15;14.60;64.20
23499;DHT22;11926;48.120;11.562;2023-03-14T13:21:09;14.50;64.40
23499;DHT22;11926;48.120;11.562;2023-03-14T13:24:00;14.50;64.60
23499;DHT22;11926;48.120;11.562;2023-03-14T13:26:48;14.50;65.10
23499;DHT22;11926;48.120;11.562;2023-03-14T13:29:36;14.50;65.30
23499;DHT22;11926;48.120;11.562;2023-03-14T13:32:27;14.50;65.50
23499;DHT22;11926;48.120;11.562;2023-03-14T13:35:18;14.60;65.70
23499;DHT22;11926;48.120;11.562;2023-03-14T13:38:17;14.50;65.60
23499;DHT22;11926;48.120;11.562;2023-03-14T13:41:06;14.30;66.20
23499;DHT22;11926;48.120;11.562;2023-03-14T13:44:02;14.10;66.60
23499;DHT22;11926;48.120;11.562;2023-03-14T13:46:50;13.90;66.90
23499;DHT22;11926;48.120;11.562;2023-03-14T13:49:39;13.70;67.40
23499;DHT22;11926;48.120;11.562;2023-03-14T13:52:30;13.60;69.60
23499;DHT22;11926;48.120;11.562;2023-03-14T13:55:18;13.50;69.80
23499;DHT22;11926;48.120;11.562;2023-03-14T13:58:18;13.40;71.50
23499;DHT22;11926;48.120;11.562;2023-03-14T14:01:12;13.20;73.60
23499;DHT22;11926;48.120;11.562;2023-03-14T14:04:06;12.90;74.30
23499;DHT22;11926;48.120;11.562;2023-03-14T14:06:59;12.70;75.40
23499;DHT22;11926;48.120;11.562;2023-03-14T14:09:49;12.40;76.60
23499;DHT22;11926;48.120;11.562;2023-03-14T14:12:41;12.20;77.50
23499;DHT22;11926;48.120;11.562;2023-03-14T14:15:37;12.00;78.90
23499;DHT22;11926;48.120;11.562;2023-03-14T14:18:27;11.70;80.10
23499;DHT22;11926;48.120;11.562;2023-03-14T14:21:15;11.60;81.30
23499;DHT22;11926;48.120;11.562;2023-03-14T14:24:05;11.40;82.10
23499;DHT22;11926;48.120;11.562;2023-03-14T14:26:59;11.30;82.90
23499;DHT22;11926;48.120;11.562;2023-03-14T14:29:56;11.20;83.70
23499;DHT22;11926;48.120;11.562;2023-03-14T14:32:44;10.90;82.80
23499;DHT22;11926;48.120;11.562;2023-03-14T14:35:34;10.80;84.60
23499;DHT22;11926;48.120;11.562;2023-03-14T14:38:21;10.60;85.40
23499;DHT22;11926;48.120;11.562;2023-03-14T14:41:11;10.40;85.70
23499;DHT22;11926;48.120;11.562;2023-03-14T14:44:00;10.30;86.00
23499;DHT22;11926;48.120;11.562;2023-03-14T14:46:47;10.10;86.70
23499;DHT22;11926;48.120;11.562;2023-03-14T14:49:36;10.00;86.80
23499;DHT22;11926;48.120;11.562;2023-03-14T14:52:36;9.90;87.50
23499;DHT22;11926;48.120;11.562;2023-03-14T14:55:31;9.90;87.80
23499;DHT22;11926;48.120;11.562;2023-03-14T14:58:24;9.80;88.00
23499;DHT22;11926;48.120;11.562;2023-03-14T15:01:15;9.80;88.00
23499;DHT22;11926;48.120;11.562;2023-03-14T15:04:09;9.70;88.20
23499;DHT22;11926;48.120;11.562;2023-03-14T15:06:58;9.60;88.60
23499;DHT22;11926;48.120;11.562;2023-03-14T15:09:46;9.50;89.00
23499;DHT22;11926;48.120;11.562;2023-03-14T15:12:33;9.50;89.20
23499;DHT22;11926;48.120;11.562;2023-03-14T15:15:22;9.50;89.50
23499;DHT22;11926;48.120;11.562;2023-03-14T15:18:13;9.60;89.60
23499;DHT22;11926;48.120;11.562;2023-03-14T15:21:01;9.60;89.60
23499;DHT22;11926;48.120;11.562;2023-03-14T15:23:49;9.60;89.80
23499;DHT22;11926;48.120;11.562;2023-03-14T15:26:37;9.60;89.80
23499;DHT22;11926;48.120;11.562;2023-03-14T15:29:24;9.70;89.80
23499;DHT22;11926;48.120;11.562;2023-03-14T15:32:16;9.70;89.80
23499;DHT22;11926;48.120;11.562;2023-03-14T15:35:05;9.70;89.90
23499;DHT22;11926;48.120;11.562;2023-03-14T15:37:53;9.60;90.10
23499;DHT22;11926;48.120;11.562;2023-03-14T15:40:42;9.50;90.30
23499;DHT22;11926;48.120;11.562;2023-03-14T15:43:29;9.50;90.50
23499;DHT22;11926;48.120;11.562;2023-03-14T15:46:17;9.40;90.60
23499;DHT22;11926;48.120;11.562;2023-03-14T15:49:08;9.40;90.60
23499;DHT22;11926;48.120;11.562;2023-03-14T15:51:56;9.20;90.80
23499;DHT22;11926;48.120;11.562;2023-03-14T15:54:43;9.10;91.00
23499;DHT22;11926;48.120;11.562;2023-03-14T15:57:31;8.90;90.80
23499;DHT22;11926;48.120;11.562;2023-03-14T16:00:20;8.80;90.70
23499;DHT22;11926;48.120;11.562;2023-03-14T16:03:09;8.60;90.60
23499;DHT22;11926;48.120;11.562;2023-03-14T16:05:59;8.50;90.50
23499;DHT22;11926;48.120;11.562;2023-03-14T16:08:47;8.40;90.50
23499;DHT22;11926;48.120;11.562;2023-03-14T16:11:34;8.40;90.30
23499;DHT22;11926;48.120;11.562;2023-03-14T16:14:21;8.30;90.30
23499;DHT22;11926;48.120;11.562;2023-03-14T16:17:09;8.30;90.30
23499;DHT22;11926;48.120;11.562;2023-03-14T16:19:57;8.30;90.20
23499;DHT22;11926;48.120;11.562;2023-03-14T16:22:47;8.30;90.10
23499;DHT22;11926;48.120;11.562;2023-03-14T16:25:34;8.30;89.80
23499;DHT22;11926;48.120;11.562;2023-03-14T16:28:22;8.20;89.40
23499;DHT22;11926;48.120;11.562;2023-03-14T16:31:12;8.30;89.10
23499;DHT22;11926;48.120;11.562;2023-03-14T16:34:01;8.30;88.00
23499;DHT22;11926;48.120;11.562;2023-03-14T16:36:49;8.20;86.60
23499;DHT22;11926;48.120;11.562;2023-03-14T16:39:38;8.30;85.20
23499;DHT22;11926;48.120;11.562;2023-03-14T16:42:46;8.20;83.40
23499;DHT22;11926;48.120;11.562;2023-03-14T16:45:54;8.20;82.70
23499;DHT22;11926;48.120;11.562;2023-03-14T16:48:44;8.20;82.50
23499;DHT22;11926;48.120;11.562;2023-03-14T16:51:32;8.20;82.30
23499;DHT22;11926;48.120;11.562;2023-03-14T16:54:19;8.30;82.30
23499;DHT22;11926;48.120;11.562;2023-03-14T16:57:09;8.30;82.10
23499;DHT22;11926;48.120;11.562;2023-03-14T16:59:56;8.30;81.80
23499;DHT22;11926;48.120;11.562;2023-03-14T17:02:44;8.20;81.70
23499;DHT22;11926;48.120;11.562;2023-03-14T17:05:32;8.20;81.60
23499;DHT22;11926;48.120;11.562;2023-03-14T17:08:21;8.20;81.40
23499;DHT22;11926;48.120;11.562;2023-03-14T17:11:10;8.20;81.60
23499;DHT22;11926;48.120;11.562;2023-03-14T17:14:00;8.10;81.60
23499;DHT22;11926;48.120;11.562;2023-03-14T17:16:48;8.10;81.00
23499;DHT22;11926;48.120;11.562;2023-03-14T17:19:37;8.10;80.80
23499;DHT22;11926;48.120;11.562;2023-03-14T17:22:25;8.00;80.30
23499;DHT22;11926;48.120;11.562;2023-03-14T17:25:17;8.00;80.00
23499;DHT22;11926;48.120;11.562;2023-03-14T17:28:05;7.90;79.50
23499;DHT22;11926;48.120;11.562;2023-03-14T17:31:04;7.90;79.10
23499;DHT22;11926;48.120;11.562;2023-03-14T17:33:52;7.80;79.20
23499;DHT22;11926;48.120;11.562;2023-03-14T17:36:40;7.70;78.90
23499;DHT22;11926;48.120;11.562;2023-03-14T17:39:28;7.60;78.90
23499;DHT22;11926;48.120;11.562;2023-03-14T17:42:16;7.50;78.60
23499;DHT22;11926;48.120;11.562;2023-03-14T17:45:04;7.40;78.50
23499;DHT22;11926;48.120;11.562;2023-03-14T17:47:54;7.30;78.30
23499;DHT22;11926;48.120;11.562;2023-03-14T17:50:41;7.30;78.00
23499;DHT22;11926;48.120;11.562;2023-03-14T17:53:29;7.20;78.00
23499;DHT22;11926;48.120;11.562;2023-03-14T17:56:16;7.10;77.70
23499;DHT22;11926;48.120;11.562;2023-03-14T17:59:03;7.10;77.70
23499;DHT22;11926;48.120;11.562;2023-03-14T18:01:51;7.00;77.60
23499;DHT22;11926;48.120;11.562;2023-03-14T18:04:39;7.00;77.60
23499;DHT22;11926;48.120;11.562;2023-03-14T18:07:27;7.00;77.50